sensor_id;sensor_type;location;lat;lon;timestamp;temperature;humidity
11569;DHT22;5840;46.894;15.542;2022-09-01T00:01:19;16.00;99.90
11569;DHT22;5840;46.894;15.542;2022-09-01T00:03:46;16.00;99.90
11569;DHT22;5840;46.894;15.542;2022-09-01T00:06:13;16.00;99.90
11569;DHT22;5840;46.894;15.542;2022-09-01T00:08:40;15.90;99.90
11569;DHT22;5840;46.894;15.542;2022-09-01T00:11:07;15.90;99.90
11569;DHT22;5840;46.894;15.542;2022-09-01T00:13:36;15.90;99.90
11569;DHT22;5840;46.894;15.542;2022-09-01T00:16:03;15.90;99.90
11569;DHT22;5840;46.894;15.542;2022-09-01T00:18:30;15.80;99.90
11569;DHT22;5840;46.894;15.542;2022-09-01T00:20:59;15.70;99.90
11569;DHT22;5840;46.894;15.542;2022-09-01T00:23:26;15.70;99.90
11569;DHT22;5840;46.894;15.542;2022-09-01T00:25:55;15.60;99.90
11569;DHT22;5840;46.894;15.542;2022-09-01T00:28:22;15.50;99.90
11569;DHT22;5840;46.894;15.542;2022-09-01T00:30:50;15.50;99.90
11569;DHT22;5840;46.894;15.542;2022-09-01T00:33:17;15.40;99.90
11569;DHT22;5840;46.894;15.542;2022-09-01T00:35:44;15.40;99.90
11569;DHT22;5840;46.894;15.542;2022-09-01T00:38:11;15.30;99.90
11569;DHT22;5840;46.894;15.542;2022-09-01T00:40:38;15.30;99.90
11569;DHT22;5840;46.894;15.542;2022-09-01T00:43:12;15.20;99.90
11569;DHT22;5840;46.894;15.542;2022-09-01T00:45:40;15.20;99.90
11569;DHT22;5840;46.894;15.542;2022-09-01T00:48:09;15.20;99.90
11569;DHT22;5840;46.894;15.542;2022-09-01T00:50:36;15.20;99.90
11569;DHT22;5840;46.894;15.542;2022-09-01T00:53:05;15.10;99.90
11569;DHT22;5840;46.894;15.542;2022-09-01T00:55:34;15.10;99.90
11569;DHT22;5840;46.894;15.542;2022-09-01T00:58:04;15.10;99.90
11569;DHT22;5840;46.894;15.542;2022-09-01T01:00:34;15.00;99.90
11569;DHT22;5840;46.894;15.542;2022-09-01T01:03:06;15.00;99.90
11569;DHT22;5840;46.894;15.542;2022-09-01T01:05:37;14.90;99.90
11569;DHT22;5840;46.894;15.542;2022-09-01T01:08:07;15.00;99.90
11569;DHT22;5840;46.894;15.542;2022-09-01T01:10:38;14.90;99.90
11569;DHT22;5840;46.894;15.542;2022-09-01T01:13:07;14.90;99.90
11569;DHT22;5840;46.894;15.542;2022-09-01T01:15:34;14.90;99.90
11569;DHT22;5840;46.894;15.542;2022-09-01T01:18:02;14.90;99.90
11569;DHT22;5840;46.894;15.542;2022-09-01T01:20:32;14.90;99.90
11569;DHT22;5840;46.894;15.542;2022-09-01T01:23:24;14.90;99.90
11569;DHT22;5840;46.894;15.542;2022-09-01T01:25:56;14.80;99.90
11569;DHT22;5840;46.894;15.542;2022-09-01T01:28:26;14.80;99.90
11569;DHT22;5840;46.894;15.542;2022-09-01T01:30:58;14.80;99.90
11569;DHT22;5840;46.894;15.542;2022-09-01T01:33:30;14.80;99.90
11569;DHT22;5840;46.894;15.542;2022-09-01T01:35:58;14.80;99.90
11569;DHT22;5840;46.894;15.542;2022-09-01T01:38:26;14.80;99.90
11569;DHT22;5840;46.894;15.542;2022-09-01T01:40:56;14.80;99.90
11569;DHT22;5840;46.894;15.542;2022-09-01T01:43:24;14.80;99.90
11569;DHT22;5840;46.894;15.542;2022-09-01T01:45:54;14.80;99.90
11569;DHT22;5840;46.894;15.542;2022-09-01T01:48:21;14.80;99.90
11569;DHT22;5840;46.894;15.542;2022-09-01T01:50:49;14.80;99.90
11569;DHT22;5840;46.894;15.542;2022-09-01T01:53:18;14.80;99.90
11569;DHT22;5840;46.894;15.542;2022-09-01T01:55:45;14.90;99.90
11569;DHT22;5840;46.894;15.542;2022-09-01T01:58:16;14.90;99.90
11569;DHT22;5840;46.894;15.542;2022-09-01T02:00:45;14.90;99.90
11569;DHT22;5840;46.894;15.542;2022-09-01T02:03:13;14.90;99.90
11569;DHT22;5840;46.894;15.542;2022-09-01T02:05:42;14.90;99.90
11569;DHT22;5840;46.894;15.542;2022-09-01T02:08:09;14.90;99.90
11569;DHT22;5840;46.894;15.542;2022-09-01T02:10:40;14.90;99.90
11569;DHT22;5840;46.894;15.542;2022-09-01T02:13:09;14.90;99.90
11569;DHT22;5840;46.894;15.542;2022-09-01T02:15:44;14.90;99.90
11569;DHT22;5840;46.894;15.542;2022-09-01T02:18:14;14.90;99.90
11569;DHT22;5840;46.894;15.542;2022-09-01T02:20:43;14.90;99.90
11569;DHT22;5840;46.894;15.542;2022-09-01T02:23:10;14.90;99.90
11569;DHT22;5840;46.894;15.542;2022-09-01T02:25:42;14.90;99.90
11569;DHT22;5840;46.894;15.542;2022-09-01T02:28:11;14.80;99.90
11569;DHT22;5840;46.894;15.542;2022-09-01T02:30:42;14.80;99.90
11569;DHT22;5840;46.894;15.542;2022-09-01T02:33:10;14.90;99.90
11569;DHT22;5840;46.894;15.542;2022-09-01T02:35:38;14.90;99.90
11569;DHT22;5840;46.894;15.542;2022-09-01T02:38:06;14.90;99.90
11569;DHT22;5840;46.894;15.542;2022-09-01T02:40:33;14.90;99.90
11569;DHT22;5840;46.894;15.542;2022-09-01T02:43:00;14.90;99.90
11569;DHT22;5840;46.894;15.542;2022-09-01T02:45:27;14.90;99.90
11569;DHT22;5840;46.894;15.542;2022-09-01T02:47:56;14.90;99.90
11569;DHT22;5840;46.894;15.542;2022-09-01T02:50:24;14.90;99.90
11569;DHT22;5840;46.894;15.542;2022-09-01T02:52:52;14.90;99.90
11569;DHT22;5840;46.894;15.542;2022-09-01T02:55:19;14.90;99.90
11569;DHT22;5840;46.894;15.542;2022-09-01T02:57:49;14.90;99.90
11569;DHT22;5840;46.894;15.542;2022-09-01T03:00:20;14.80;99.90
11569;DHT22;5840;46.894;15.542;2022-09-01T03:02:54;14.80;99.90
11569;DHT22;5840;46.894;15.542;2022-09-01T03:05:23;14.90;99.90
11569;DHT22;5840;46.894;15.542;2022-09-01T03:07:52;14.90;99.90
11569;DHT22;5840;46.894;15.542;2022-09-01T03:10:26;14.90;99.90
11569;DHT22;5840;46.894;15.542;2022-09-01T03:12:58;14.90;99.90
11569;DHT22;5840;46.894;15.542;2022-09-01T03:15:26;14.90;99.90
11569;DHT22;5840;46.894;15.542;2022-09-01T03:17:53;15.00;99.90
11569;DHT22;5840;46.894;15.542;2022-09-01T03:20:22;15.00;99.90
11569;DHT22;5840;46.894;15.542;2022-09-01T03:22:49;15.00;99.90
11569;DHT22;5840;46.894;15.542;2022-09-01T03:25:17;15.00;99.90
11569;DHT22;5840;46.894;15.542;2022-09-01T03:27:44;15.00;99.90
11569;DHT22;5840;46.894;15.542;2022-09-01T03:30:13;15.00;99.90
11569;DHT22;5840;46.894;15.542;2022-09-01T03:32:40;15.00;99.90
11569;DHT22;5840;46.894;15.542;2022-09-01T03:35:07;14.90;99.90
11569;DHT22;5840;46.894;15.542;2022-09-01T03:37:36;14.90;99.90
11569;DHT22;5840;46.894;15.542;2022-09-01T03:40:05;15.00;99.90
11569;DHT22;5840;46.894;15.542;2022-09-01T03:42:33;14.90;99.90
11569;DHT22;5840;46.894;15.542;2022-09-01T03:45:00;14.90;99.90
11569;DHT22;5840;46.894;15.542;2022-09-01T03:47:33;14.90;99.90
11569;DHT22;5840;46.894;15.542;2022-09-01T03:50:04;14.90;99.90
11569;DHT22;5840;46.894;15.542;2022-09-01T03:52:32;14.90;99.90
11569;DHT22;5840;46.894;15.542;2022-09-01T03:55:00;14.90;99.90
11569;DHT22;5840;46.894;15.542;2022-09-01T03:57:27;14.90;99.90
11569;DHT22;5840;46.894;15.542;2022-09-01T03:59:54;14.90;99.90
11569;DHT22;5840;46.894;15.542;2022-09-01T04:02:23;14.90;99.90
11569;DHT22;5840;46.894;15.542;2022-09-01T04:04:54;14.90;99.90
11569;DHT22;5840;46.894;15.542;2022-09-01T04:07:23;14.80;99.90
11569;DHT22;5840;46.894;15.542;2022-09-01T04:09:50;14.80;99.90
11569;DHT22;5840;46.894;15.542;2022-09-01T04:12:19;14.80;99.90
11569;DHT22;5840;46.894;15.542;2022-09-01T04:14:47;14.80;99.90
11569;DHT22;5840;46.894;15.542;2022-09-01T04:17:14;14.80;99.90
11569;DHT22;5840;46.894;15.542;2022-09-01T04:19:58;14.80;99.90
11569;DHT22;5840;46.894;15.542;2022-09-01T04:22:27;14.80;99.90
11569;DHT22;5840;46.894;15.542;2022-09-01T04:24:56;14.70;99.90
11569;DHT22;5840;46.894;15.542;2022-09-01T04:27:25;14.70;99.90
11569;DHT22;5840;46.894;15.542;2022-09-01T04:29:53;14.70;99.90
11569;DHT22;5840;46.894;15.542;2022-09-01T04:32:21;14.70;99.90
11569;DHT22;5840;46.894;15.542;2022-09-01T04:34:49;14.70;99.90
11569;DHT22;5840;46.894;15.542;2022-09-01T04:37:18;14.70;99.90
11569;DHT22;5840;46.894;15.542;2022-09-01T04:39:48;14.70;99.90
11569;DHT22;5840;46.894;15.542;2022-09-01T04:42:17;14.60;99.90
11569;DHT22;5840;46.894;15.542;2022-09-01T04:44:47;14.60;99.90
11569;DHT22;5840;46.894;15.542;2022-09-01T04:47:14;14.60;99.90
11569;DHT22;5840;46.894;15.542;2022-09-01T04:49:42;14.70;99.90
11569;DHT22;5840;46.894;15.542;2022-09-01T04:52:10;14.70;99.90
11569;DHT22;5840;46.894;15.542;2022-09-01T04:54:38;14.70;99.90
11569;DHT22;5840;46.894;15.542;2022-09-01T04:57:05;14.60;99.90
11569;DHT22;5840;46.894;15.542;2022-09-01T04:59:32;14.70;99.90
11569;DHT22;5840;46.894;15.542;2022-09-01T05:02:01;14.70;99.90
11569;DHT22;5840;46.894;15.542;2022-09-01T05:04:34;14.70;99.90
11569;DHT22;5840;46.894;15.542;2022-09-01T05:07:03;14.70;99.90
11569;DHT22;5840;46.894;15.542;2022-09-01T05:09:32;14.70;99.90
11569;DHT22;5840;46.894;15.542;2022-09-01T05:12:00;14.70;99.90
11569;DHT22;5840;46.894;15.542;2022-09-01T05:14:35;14.70;99.90
11569;DHT22;5840;46.894;15.542;2022-09-01T05:17:04;14.70;99.90
11569;DHT22;5840;46.894;15.542;2022-09-01T05:19:35;14.70;99.90
11569;DHT22;5840;46.894;15.542;2022-09-01T05:22:02;14.70;99.90
11569;DHT22;5840;46.894;15.542;2022-09-01T05:24:29;14.70;99.90
11569;DHT22;5840;46.894;15.542;2022-09-01T05:26:57;14.70;99.90
11569;DHT22;5840;46.894;15.542;2022-09-01T05:29:25;14.70;99.90
11569;DHT22;5840;46.894;15.542;2022-09-01T05:31:52;14.70;99.90
11569;DHT22;5840;46.894;15.542;2022-09-01T05:34:22;14.70;99.90
11569;DHT22;5840;46.894;15.542;2022-09-01T05:36:53;14.70;99.90
11569;DHT22;5840;46.894;15.542;2022-09-01T05:39:20;14.80;99.90
11569;DHT22;5840;46.894;15.542;2022-09-01T05:41:47;14.80;99.90
11569;DHT22;5840;46.894;15.542;2022-09-01T05:44:14;14.80;99.90
11569;DHT22;5840;46.894;15.542;2022-09-01T05:46:43;14.90;99.90
11569;DHT22;5840;46.894;15.542;2022-09-01T05:49:11;14.90;99.90
11569;DHT22;5840;46.894;15.542;2022-09-01T05:51:44;14.90;99.90
11569;DHT22;5840;46.894;15.542;2022-09-01T05:54:14;15.00;99.90
11569;DHT22;5840;46.894;15.542;2022-09-01T05:56:42;15.00;99.90
11569;DHT22;5840;46.894;15.542;2022-09-01T05:59:09;15.10;99.90
11569;DHT22;5840;46.894;15.542;2022-09-01T06:01:36;15.10;99.90
11569;DHT22;5840;46.894;15.542;2022-09-01T06:04:06;15.20;99.90
11569;DHT22;5840;46.894;15.542;2022-09-01T06:06:37;15.20;99.90
11569;DHT22;5840;46.894;15.542;2022-09-01T06:09:08;15.30;99.90
11569;DHT22;5840;46.894;15.542;2022-09-01T06:11:37;15.40;99.90
11569;DHT22;5840;46.894;15.542;2022-09-01T06:14:04;15.40;99.90
11569;DHT22;5840;46.894;15.542;2022-09-01T06:16:33;15.40;99.90
11569;DHT22;5840;46.894;15.542;2022-09-01T06:19:01;15.50;99.90
11569;DHT22;5840;46.894;15.542;2022-09-01T06:21:28;15.50;99.90
11569;DHT22;5840;46.894;15.542;2022-09-01T06:23:56;15.50;99.90
11569;DHT22;5840;46.894;15.542;2022-09-01T06:26:28;15.60;99.90
11569;DHT22;5840;46.894;15.542;2022-09-01T06:28:56;15.60;99.90
11569;DHT22;5840;46.894;15.542;2022-09-01T06:31:26;15.70;99.90
11569;DHT22;5840;46.894;15.542;2022-09-01T06:34:00;15.80;99.90
11569;DHT22;5840;46.894;15.542;2022-09-01T06:36:29;15.80;99.90
11569;DHT22;5840;46.894;15.542;2022-09-01T06:38:57;15.90;99.90
11569;DHT22;5840;46.894;15.542;2022-09-01T06:41:28;15.90;99.90
11569;DHT22;5840;46.894;15.542;2022-09-01T06:43:56;15.90;99.90
11569;DHT22;5840;46.894;15.542;2022-09-01T06:46:26;15.90;99.90
11569;DHT22;5840;46.894;15.542;2022-09-01T06:48:54;16.00;99.90
11569;DHT22;5840;46.894;15.542;2022-09-01T06:51:24;16.00;99.90
11569;DHT22;5840;46.894;15.542;2022-09-01T06:53:53;16.00;99.90
11569;DHT22;5840;46.894;15.542;2022-09-01T06:56:24;16.00;99.90
11569;DHT22;5840;46.894;15.542;2022-09-01T06:58:54;16.10;99.90
11569;DHT22;5840;46.894;15.542;2022-09-01T07:01:22;16.10;99.90
11569;DHT22;5840;46.894;15.542;2022-09-01T07:03:52;16.10;99.90
11569;DHT22;5840;46.894;15.542;2022-09-01T07:06:21;16.20;99.90
11569;DHT22;5840;46.894;15.542;2022-09-01T07:08:50;16.20;99.90
11569;DHT22;5840;46.894;15.542;2022-09-01T07:11:23;16.30;99.90
11569;DHT22;5840;46.894;15.542;2022-09-01T07:13:56;16.30;99.90
11569;DHT22;5840;46.894;15.542;2022-09-01T07:16:28;16.30;99.90
11569;DHT22;5840;46.894;15.542;2022-09-01T07:18:56;16.30;99.90
11569;DHT22;5840;46.894;15.542;2022-09-01T07:21:27;16.40;99.90
11569;DHT22;5840;46.894;15.542;2022-09-01T07:23:56;16.50;99.90
11569;DHT22;5840;46.894;15.542;2022-09-01T07:26:26;16.60;99.90
11569;DHT22;5840;46.894;15.542;2022-09-01T07:28:56;16.70;99.90
11569;DHT22;5840;46.894;15.542;2022-09-01T07:31:25;16.70;99.90
11569;DHT22;5840;46.894;15.542;2022-09-01T07:33:54;16.70;99.90
11569;DHT22;5840;46.894;15.542;2022-09-01T07:36:24;16.80;99.90
11569;DHT22;5840;46.894;15.542;2022-09-01T07:38:51;16.90;99.90
11569;DHT22;5840;46.894;15.542;2022-09-01T07:41:19;16.90;99.90
11569;DHT22;5840;46.894;15.542;2022-09-01T07:43:47;17.00;99.90
11569;DHT22;5840;46.894;15.542;2022-09-01T07:46:17;17.10;99.90
11569;DHT22;5840;46.894;15.542;2022-09-01T07:48:44;17.20;99.90
11569;DHT22;5840;46.894;15.542;2022-09-01T07:51:14;17.30;99.90
11569;DHT22;5840;46.894;15.542;2022-09-01T07:53:44;17.40;99.90
11569;DHT22;5840;46.894;15.542;2022-09-01T07:56:13;17.50;99.90
11569;DHT22;5840;46.894;15.542;2022-09-01T07:58:44;17.50;99.90
11569;DHT22;5840;46.894;15.542;2022-09-01T08:01:14;17.60;99.90
11569;DHT22;5840;46.894;15.542;2022-09-01T08:03:45;17.60;99.90
11569;DHT22;5840;46.894;15.542;2022-09-01T08:06:14;17.80;99.90
11569;DHT22;5840;46.894;15.542;2022-09-01T08:08:46;18.00;99.90
11569;DHT22;5840;46.894;15.542;2022-09-01T08:11:15;18.20;99.90
11569;DHT22;5840;46.894;15.542;2022-09-01T08:13:43;18.50;99.90
11569;DHT22;5840;46.894;15.542;2022-09-01T08:16:10;18.70;99.90
11569;DHT22;5840;46.894;15.542;2022-09-01T08:18:39;19.10;99.90
11569;DHT22;5840;46.894;15.542;2022-09-01T08:21:08;19.30;99.90
11569;DHT22;5840;46.894;15.542;2022-09-01T08:23:36;19.50;99.90
11569;DHT22;5840;46.894;15.542;2022-09-01T08:26:07;19.60;99.90
11569;DHT22;5840;46.894;15.542;2022-09-01T08:28:35;19.60;99.90
11569;DHT22;5840;46.894;15.542;2022-09-01T08:31:05;19.80;99.90
11569;DHT22;5840;46.894;15.542;2022-09-01T08:33:32;19.90;99.90
11569;DHT22;5840;46.894;15.542;2022-09-01T08:36:00;19.90;99.90
11569;DHT22;5840;46.894;15.542;2022-09-01T08:38:28;20.00;99.90
11569;DHT22;5840;46.894;15.542;2022-09-01T08:40:57;19.90;99.90
11569;DHT22;5840;46.894;15.542;2022-09-01T08:43:33;20.00;99.90
11569;DHT22;5840;46.894;15.542;2022-09-01T08:46:08;20.30;99.90
11569;DHT22;5840;46.894;15.542;2022-09-01T08:48:39;20.50;99.90
11569;DHT22;5840;46.894;15.542;2022-09-01T08:51:14;20.60;99.90
11569;DHT22;5840;46.894;15.542;2022-09-01T08:53:46;20.50;99.90
11569;DHT22;5840;46.894;15.542;2022-09-01T08:56:17;20.60;99.90
11569;DHT22;5840;46.894;15.542;2022-09-01T08:58:44;20.70;99.90
11569;DHT22;5840;46.894;15.542;2022-09-01T09:01:18;20.60;99.90
11569;DHT22;5840;46.894;15.542;2022-09-01T09:04:02;20.70;99.90
11569;DHT22;5840;46.894;15.542;2022-09-01T09:06:39;20.70;99.90
11569;DHT22;5840;46.894;15.542;2022-09-01T09:09:10;20.80;99.90
11569;DHT22;5840;46.894;15.542;2022-09-01T09:11:56;21.00;99.90
11569;DHT22;5840;46.894;15.542;2022-09-01T09:14:36;21.20;99.90
11569;DHT22;5840;46.894;15.542;2022-09-01T09:17:08;21.50;99.90
11569;DHT22;5840;46.894;15.542;2022-09-01T09:19:38;21.90;99.90
11569;DHT22;5840;46.894;15.542;2022-09-01T09:22:07;22.30;99.90
11569;DHT22;5840;46.894;15.542;2022-09-01T09:24:43;22.40;99.90
11569;DHT22;5840;46.894;15.542;2022-09-01T09:27:18;22.40;99.90
11569;DHT22;5840;46.894;15.542;2022-09-01T09:29:47;22.50;99.90
11569;DHT22;5840;46.894;15.542;2022-09-01T09:32:15;22.40;99.90
11569;DHT22;5840;46.894;15.542;2022-09-01T09:34:42;22.40;99.90
11569;DHT22;5840;46.894;15.542;2022-09-01T09:37:20;22.50;99.90
11569;DHT22;5840;46.894;15.542;2022-09-01T09:40:08;22.50;99.90
11569;DHT22;5840;46.894;15.542;2022-09-01T09:42:35;22.60;99.90
11569;DHT22;5840;46.894;15.542;2022-09-01T09:45:12;22.70;99.90
11569;DHT22;5840;46.894;15.542;2022-09-01T09:47:44;22.80;99.90
11569;DHT22;5840;46.894;15.542;2022-09-01T09:50:23;23.00;99.90
11569;DHT22;5840;46.894;15.542;2022-09-01T09:52:53;23.10;99.90
11569;DHT22;5840;46.894;15.542;2022-09-01T09:55:51;22.90;99.90
11569;DHT22;5840;46.894;15.542;2022-09-01T09:58:20;22.90;99.90
11569;DHT22;5840;46.894;15.542;2022-09-01T10:00:59;22.90;99.90
11569;DHT22;5840;46.894;15.542;2022-09-01T10:03:40;22.80;99.90
11569;DHT22;5840;46.894;15.542;2022-09-01T10:06:12;22.70;99.90
11569;DHT22;5840;46.894;15.542;2022-09-01T10:08:42;22.60;99.90
11569;DHT22;5840;46.894;15.542;2022-09-01T10:11:24;22.60;99.90
11569;DHT22;5840;46.894;15.542;2022-09-01T10:13:52;22.50;99.90
11569;DHT22;5840;46.894;15.542;2022-09-01T10:16:26;22.40;99.90
11569;DHT22;5840;46.894;15.542;2022-09-01T10:18:56;22.40;99.90
11569;DHT22;5840;46.894;15.542;2022-09-01T10:21:30;22.30;99.90
11569;DHT22;5840;46.894;15.542;2022-09-01T10:23:58;22.30;99.90
11569;DHT22;5840;46.894;15.542;2022-09-01T10:26:31;22.20;99.90
11569;DHT22;5840;46.894;15.542;2022-09-01T10:29:05;22.30;99.90
11569;DHT22;5840;46.894;15.542;2022-09-01T10:31:34;22.30;99.90
11569;DHT22;5840;46.894;15.542;2022-09-01T10:34:03;22.30;99.90
11569;DHT22;5840;46.894;15.542;2022-09-01T10:36:31;22.20;99.90
11569;DHT22;5840;46.894;15.542;2022-09-01T10:38:59;22.20;99.90
11569;DHT22;5840;46.894;15.542;2022-09-01T10:41:50;22.20;99.90
11569;DHT22;5840;46.894;15.542;2022-09-01T10:44:21;22.30;99.90
11569;DHT22;5840;46.894;15.542;2022-09-01T10:46:49;22.50;99.90
11569;DHT22;5840;46.894;15.542;2022-09-01T10:55:18;22.90;99.90
11569;DHT22;5840;46.894;15.542;2022-09-01T11:00:52;23.00;99.70
11569;DHT22;5840;46.894;15.542;2022-09-01T11:03:37;23.10;99.90
11569;DHT22;5840;46.894;15.542;2022-09-01T11:06:05;23.10;98.30
11569;DHT22;5840;46.894;15.542;2022-09-01T11:08:44;23.00;99.90
11569;DHT22;5840;46.894;15.542;2022-09-01T11:11:25;23.00;99.90
11569;DHT22;5840;46.894;15.542;2022-09-01T11:13:57;23.00;99.90
11569;DHT22;5840;46.894;15.542;2022-09-01T11:16:33;22.90;99.90
11569;DHT22;5840;46.894;15.542;2022-09-01T11:19:32;22.80;99.90
11569;DHT22;5840;46.894;15.542;2022-09-01T11:22:22;22.90;99.60
11569;DHT22;5840;46.894;15.542;2022-09-01T11:28:07;23.00;99.90
11569;DHT22;5840;46.894;15.542;2022-09-01T11:30:40;23.00;99.90
11569;DHT22;5840;46.894;15.542;2022-09-01T11:33:32;22.90;99.40
11569;DHT22;5840;46.894;15.542;2022-09-01T11:36:02;22.80;98.50
11569;DHT22;5840;46.894;15.542;2022-09-01T11:38:37;22.80;99.20
11569;DHT22;5840;46.894;15.542;2022-09-01T11:41:19;22.50;98.80
11569;DHT22;5840;46.894;15.542;2022-09-01T11:43:50;22.40;97.40
11569;DHT22;5840;46.894;15.542;2022-09-01T11:46:24;22.40;99.20
11569;DHT22;5840;46.894;15.542;2022-09-01T11:48:52;22.40;99.20
11569;DHT22;5840;46.894;15.542;2022-09-01T11:51:19;22.40;99.90
11569;DHT22;5840;46.894;15.542;2022-09-01T11:53:46;22.50;99.90
11569;DHT22;5840;46.894;15.542;2022-09-01T11:56:17;22.50;99.90
11569;DHT22;5840;46.894;15.542;2022-09-01T11:58:44;22.50;99.80
11569;DHT22;5840;46.894;15.542;2022-09-01T12:01:16;22.50;99.10
11569;DHT22;5840;46.894;15.542;2022-09-01T12:03:46;22.40;98.30
11569;DHT22;5840;46.894;15.542;2022-09-01T12:06:18;22.50;99.50
11569;DHT22;5840;46.894;15.542;2022-09-01T12:08:53;22.40;97.80
11569;DHT22;5840;46.894;15.542;2022-09-01T12:11:23;22.40;97.60
11569;DHT22;5840;46.894;15.542;2022-09-01T12:13:57;22.30;97.80
11569;DHT22;5840;46.894;15.542;2022-09-01T12:16:25;22.30;95.70
11569;DHT22;5840;46.894;15.542;2022-09-01T12:18:55;22.30;96.80
11569;DHT22;5840;46.894;15.542;2022-09-01T12:21:25;22.40;96.30
11569;DHT22;5840;46.894;15.542;2022-09-01T12:23:54;22.40;95.80
11569;DHT22;5840;46.894;15.542;2022-09-01T12:26:35;22.50;95.10
11569;DHT22;5840;46.894;15.542;2022-09-01T12:29:03;22.50;92.80
11569;DHT22;5840;46.894;15.542;2022-09-01T12:31:32;22.40;94.10
11569;DHT22;5840;46.894;15.542;2022-09-01T12:34:01;22.50;96.70
11569;DHT22;5840;46.894;15.542;2022-09-01T12:36:30;22.60;96.30
11569;DHT22;5840;46.894;15.542;2022-09-01T12:39:18;22.60;95.20
11569;DHT22;5840;46.894;15.542;2022-09-01T12:42:00;22.60;95.00
11569;DHT22;5840;46.894;15.542;2022-09-01T12:44:31;22.60;94.80
11569;DHT22;5840;46.894;15.542;2022-09-01T12:47:01;22.70;95.80
11569;DHT22;5840;46.894;15.542;2022-09-01T12:49:38;22.70;94.50
11569;DHT22;5840;46.894;15.542;2022-09-01T12:52:13;22.60;93.50
11569;DHT22;5840;46.894;15.542;2022-09-01T12:54:44;22.60;93.90
11569;DHT22;5840;46.894;15.542;2022-09-01T12:57:24;22.60;94.30
11569;DHT22;5840;46.894;15.542;2022-09-01T13:00:13;22.60;93.30
11569;DHT22;5840;46.894;15.542;2022-09-01T13:02:43;22.60;93.30
11569;DHT22;5840;46.894;15.542;2022-09-01T13:05:26;22.50;93.40
11569;DHT22;5840;46.894;15.542;2022-09-01T13:07:56;22.50;92.60
11569;DHT22;5840;46.894;15.542;2022-09-01T13:10:26;22.30;91.20
11569;DHT22;5840;46.894;15.542;2022-09-01T13:12:54;22.20;93.00
11569;DHT22;5840;46.894;15.542;2022-09-01T13:15:22;22.10;91.90
11569;DHT22;5840;46.894;15.542;2022-09-01T13:17:50;22.00;92.00
11569;DHT22;5840;46.894;15.542;2022-09-01T13:20:18;22.00;92.60
11569;DHT22;5840;46.894;15.542;2022-09-01T13:22:46;22.00;93.90
11569;DHT22;5840;46.894;15.542;2022-09-01T13:25:15;22.00;94.00
11569;DHT22;5840;46.894;15.542;2022-09-01T13:27:44;21.90;91.80
11569;DHT22;5840;46.894;15.542;2022-09-01T13:30:14;21.80;92.70
11569;DHT22;5840;46.894;15.542;2022-09-01T13:32:41;21.80;93.20
11569;DHT22;5840;46.894;15.542;2022-09-01T13:35:09;21.80;93.20
11569;DHT22;5840;46.894;15.542;2022-09-01T13:37:37;21.70;94.20
11569;DHT22;5840;46.894;15.542;2022-09-01T13:40:06;21.70;94.40
11569;DHT22;5840;46.894;15.542;2022-09-01T13:42:40;21.70;94.10
11569;DHT22;5840;46.894;15.542;2022-09-01T13:45:08;21.70;95.10
11569;DHT22;5840;46.894;15.542;2022-09-01T13:47:37;21.60;95.10
11569;DHT22;5840;46.894;15.542;2022-09-01T13:50:05;21.60;96.60
11569;DHT22;5840;46.894;15.542;2022-09-01T13:52:32;21.60;95.90
11569;DHT22;5840;46.894;15.542;2022-09-01T13:54:59;21.60;93.10
11569;DHT22;5840;46.894;15.542;2022-09-01T13:57:27;21.50;92.80
11569;DHT22;5840;46.894;15.542;2022-09-01T13:59:55;21.50;94.40
11569;DHT22;5840;46.894;15.542;2022-09-01T14:02:23;21.50;93.20
11569;DHT22;5840;46.894;15.542;2022-09-01T14:04:50;21.50;93.20
11569;DHT22;5840;46.894;15.542;2022-09-01T14:07:17;21.40;94.00
11569;DHT22;5840;46.894;15.542;2022-09-01T14:09:46;21.30;94.10
11569;DHT22;5840;46.894;15.542;2022-09-01T14:12:12;21.30;94.00
11569;DHT22;5840;46.894;15.542;2022-09-01T14:14:41;21.30;94.60
11569;DHT22;5840;46.894;15.542;2022-09-01T14:17:08;21.20;96.50
11569;DHT22;5840;46.894;15.542;2022-09-01T14:19:34;21.20;97.70
11569;DHT22;5840;46.894;15.542;2022-09-01T14:22:01;21.20;98.80
11569;DHT22;5840;46.894;15.542;2022-09-01T14:24:30;21.10;99.90
11569;DHT22;5840;46.894;15.542;2022-09-01T14:27:01;21.10;98.60
11569;DHT22;5840;46.894;15.542;2022-09-01T14:29:28;21.00;98.50
11569;DHT22;5840;46.894;15.542;2022-09-01T14:31:56;20.90;99.50
11569;DHT22;5840;46.894;15.542;2022-09-01T14:34:24;20.80;99.00
11569;DHT22;5840;46.894;15.542;2022-09-01T14:36:51;20.80;98.60
11569;DHT22;5840;46.894;15.542;2022-09-01T14:39:22;20.70;99.00
11569;DHT22;5840;46.894;15.542;2022-09-01T14:41:49;20.70;98.80
11569;DHT22;5840;46.894;15.542;2022-09-01T14:44:16;20.60;98.80
11569;DHT22;5840;46.894;15.542;2022-09-01T14:46:43;20.60;99.40
11569;DHT22;5840;46.894;15.542;2022-09-01T14:49:13;20.50;99.50
11569;DHT22;5840;46.894;15.542;2022-09-01T14:51:41;20.40;99.70
11569;DHT22;5840;46.894;15.542;2022-09-01T14:54:08;20.40;99.90
11569;DHT22;5840;46.894;15.542;2022-09-01T14:56:35;20.40;99.70
11569;DHT22;5840;46.894;15.542;2022-09-01T14:59:02;20.30;99.90
11569;DHT22;5840;46.894;15.542;2022-09-01T15:01:29;20.30;99.90
11569;DHT22;5840;46.894;15.542;2022-09-01T15:03:56;20.30;99.90
11569;DHT22;5840;46.894;15.542;2022-09-01T15:06:25;20.30;99.90
11569;DHT22;5840;46.894;15.542;2022-09-01T15:08:52;20.20;99.90
11569;DHT22;5840;46.894;15.542;2022-09-01T15:11:19;20.10;99.90
11569;DHT22;5840;46.894;15.542;2022-09-01T15:13:46;20.10;99.90
11569;DHT22;5840;46.894;15.542;2022-09-01T15:16:19;20.00;99.90
11569;DHT22;5840;46.894;15.542;2022-09-01T15:18:47;19.90;99.90
11569;DHT22;5840;46.894;15.542;2022-09-01T15:21:18;19.90;99.90
11569;DHT22;5840;46.894;15.542;2022-09-01T15:23:46;19.90;99.90
11569;DHT22;5840;46.894;15.542;2022-09-01T15:26:15;19.80;99.90
11569;DHT22;5840;46.894;15.542;2022-09-01T15:28:43;19.80;99.90
11569;DHT22;5840;46.894;15.542;2022-09-01T15:31:11;19.60;99.90
11569;DHT22;5840;46.894;15.542;2022-09-01T15:33:39;19.60;99.90
11569;DHT22;5840;46.894;15.542;2022-09-01T15:36:06;19.60;99.90
11569;DHT22;5840;46.894;15.542;2022-09-01T15:38:34;19.60;99.90
11569;DHT22;5840;46.894;15.542;2022-09-01T15:41:02;19.60;99.90
11569;DHT22;5840;46.894;15.542;2022-09-01T15:43:29;19.60;99.90
11569;DHT22;5840;46.894;15.542;2022-09-01T15:45:57;19.60;99.90
11569;DHT22;5840;46.894;15.542;2022-09-01T15:48:27;19.60;99.90
11569;DHT22;5840;46.894;15.542;2022-09-01T15:51:06;19.60;99.90
11569;DHT22;5840;46.894;15.542;2022-09-01T15:53:42;19.50;99.90
11569;DHT22;5840;46.894;15.542;2022-09-01T15:56:10;19.50;99.90
11569;DHT22;5840;46.894;15.542;2022-09-01T15:58:37;19.40;99.90
11569;DHT22;5840;46.894;15.542;2022-09-01T16:01:04;19.40;99.90